sensor_id;sensor_type;location;lat;lon;timestamp;P1;durP1;ratioP1;P2;durP2;ratioP2
21671;SDS011;10997;52.242;8.168;2022-08-11T00:03:10;5.53;;;3.00;;
21671;SDS011;10997;52.242;8.168;2022-08-11T00:08:26;4.72;;;3.22;;
21671;SDS011;10997;52.242;8.168;2022-08-11T00:13:36;5.63;;;3.13;;
21671;SDS011;10997;52.242;8.168;2022-08-11T00:18:45;3.40;;;3.10;;
21671;SDS011;10997;52.242;8.168;2022-08-11T00:23:52;6.43;;;3.40;;
21671;SDS011;10997;52.242;8.168;2022-08-11T00:28:56;5.45;;;3.30;;
21671;SDS011;10997;52.242;8.168;2022-08-11T00:34:09;3.97;;;3.33;;
21671;SDS011;10997;52.242;8.168;2022-08-11T00:39:11;4.03;;;3.47;;
21671;SDS011;10997;52.242;8.168;2022-08-11T00:44:20;4.93;;;3.33;;
21671;SDS011;10997;52.242;8.168;2022-08-11T00:49:51;3.92;;;3.28;;
21671;SDS011;10997;52.242;8.168;2022-08-11T01:00:18;5.50;;;3.47;;
21671;SDS011;10997;52.242;8.168;2022-08-11T01:32:52;5.47;;;3.45;;
21671;SDS011;10997;52.242;8.168;2022-08-11T01:43:01;4.32;;;3.45;;
21671;SDS011;10997;52.242;8.168;2022-08-11T01:54:04;6.93;;;3.50;;
21671;SDS011;10997;52.242;8.168;2022-08-11T02:09:41;4.50;;;3.50;;
21671;SDS011;10997;52.242;8.168;2022-08-11T02:15:42;4.57;;;3.63;;
21671;SDS011;10997;52.242;8.168;2022-08-11T02:20:20;5.13;;;3.33;;
21671;SDS011;10997;52.242;8.168;2022-08-11T02:36:41;5.20;;;3.83;;
21671;SDS011;10997;52.242;8.168;2022-08-11T02:41:55;4.75;;;3.40;;
21671;SDS011;10997;52.242;8.168;2022-08-11T02:48:23;5.35;;;3.65;;
21671;SDS011;10997;52.242;8.168;2022-08-11T02:53:35;6.72;;;3.50;;
21671;SDS011;10997;52.242;8.168;2022-08-11T02:58:48;6.15;;;4.13;;
21671;SDS011;10997;52.242;8.168;2022-08-11T03:04:19;6.72;;;3.85;;
21671;SDS011;10997;52.242;8.168;2022-08-11T03:09:28;6.80;;;4.30;;
21671;SDS011;10997;52.242;8.168;2022-08-11T03:14:47;5.07;;;3.92;;
21671;SDS011;10997;52.242;8.168;2022-08-11T03:58:05;5.15;;;4.22;;
21671;SDS011;10997;52.242;8.168;2022-08-11T04:03:23;8.13;;;4.63;;
21671;SDS011;10997;52.242;8.168;2022-08-11T04:08:41;7.82;;;4.07;;
21671;SDS011;10997;52.242;8.168;2022-08-11T04:24:57;7.75;;;4.22;;
21671;SDS011;10997;52.242;8.168;2022-08-11T04:52:01;5.95;;;4.45;;
21671;SDS011;10997;52.242;8.168;2022-08-11T04:58:18;8.63;;;4.80;;
21671;SDS011;10997;52.242;8.168;2022-08-11T05:03:42;5.25;;;4.70;;
21671;SDS011;10997;52.242;8.168;2022-08-11T05:19:30;10.35;;;4.50;;
21671;SDS011;10997;52.242;8.168;2022-08-11T05:24:49;10.18;;;4.70;;
21671;SDS011;10997;52.242;8.168;2022-08-11T05:30:18;9.15;;;4.35;;
21671;SDS011;10997;52.242;8.168;2022-08-11T05:35:40;7.75;;;4.80;;
21671;SDS011;10997;52.242;8.168;2022-08-11T05:40:47;6.00;;;4.70;;
21671;SDS011;10997;52.242;8.168;2022-08-11T05:46:09;5.93;;;4.70;;
21671;SDS011;10997;52.242;8.168;2022-08-11T05:51:34;6.78;;;4.53;;
21671;SDS011;10997;52.242;8.168;2022-08-11T05:56:59;6.93;;;4.72;;
21671;SDS011;10997;52.242;8.168;2022-08-11T06:02:04;7.88;;;4.65;;
21671;SDS011;10997;52.242;8.168;2022-08-11T06:07:08;7.60;;;5.57;;
21671;SDS011;10997;52.242;8.168;2022-08-11T06:12:17;7.85;;;5.60;;
21671;SDS011;10997;52.242;8.168;2022-08-11T06:17:27;9.05;;;6.53;;
21671;SDS011;10997;52.242;8.168;2022-08-11T06:22:30;7.93;;;6.18;;
21671;SDS011;10997;52.242;8.168;2022-08-11T06:27:32;10.85;;;6.15;;
21671;SDS011;10997;52.242;8.168;2022-08-11T06:32:34;11.27;;;6.10;;
21671;SDS011;10997;52.242;8.168;2022-08-11T06:37:48;7.53;;;4.65;;
21671;SDS011;10997;52.242;8.168;2022-08-11T06:43:20;11.82;;;6.25;;
21671;SDS011;10997;52.242;8.168;2022-08-11T06:48:24;9.35;;;4.80;;
21671;SDS011;10997;52.242;8.168;2022-08-11T06:53:25;3.53;;;3.00;;
21671;SDS011;10997;52.242;8.168;2022-08-11T06:58:35;4.72;;;3.10;;
21671;SDS011;10997;52.242;8.168;2022-08-11T07:03:59;4.55;;;2.70;;
21671;SDS011;10997;52.242;8.168;2022-08-11T07:14:26;6.68;;;2.85;;
21671;SDS011;10997;52.242;8.168;2022-08-11T07:19:49;5.47;;;2.15;;
21671;SDS011;10997;52.242;8.168;2022-08-11T07:25:14;5.05;;;2.33;;
21671;SDS011;10997;52.242;8.168;2022-08-11T07:30:36;3.70;;;2.17;;
21671;SDS011;10997;52.242;8.168;2022-08-11T07:35:42;6.25;;;2.08;;
21671;SDS011;10997;52.242;8.168;2022-08-11T07:40:48;3.40;;;2.10;;
21671;SDS011;10997;52.242;8.168;2022-08-11T07:45:50;5.43;;;2.50;;
21671;SDS011;10997;52.242;8.168;2022-08-11T07:51:09;3.42;;;1.90;;
21671;SDS011;10997;52.242;8.168;2022-08-11T07:56:31;3.42;;;1.90;;
21671;SDS011;10997;52.242;8.168;2022-08-11T08:01:33;6.10;;;1.73;;
21671;SDS011;10997;52.242;8.168;2022-08-11T08:06:53;5.10;;;1.92;;
21671;SDS011;10997;52.242;8.168;2022-08-11T08:12:13;3.63;;;1.80;;
21671;SDS011;10997;52.242;8.168;2022-08-11T08:17:33;3.22;;;1.65;;
21671;SDS011;10997;52.242;8.168;2022-08-11T08:22:57;4.68;;;1.60;;
21671;SDS011;10997;52.242;8.168;2022-08-11T08:28:00;2.35;;;1.70;;
21671;SDS011;10997;52.242;8.168;2022-08-11T08:33:04;4.47;;;1.85;;
21671;SDS011;10997;52.242;8.168;2022-08-11T08:38:05;5.63;;;1.80;;
21671;SDS011;10997;52.242;8.168;2022-08-11T08:43:07;5.07;;;1.88;;
21671;SDS011;10997;52.242;8.168;2022-08-11T08:48:14;4.13;;;2.10;;
21671;SDS011;10997;52.242;8.168;2022-08-11T08:53:19;6.13;;;2.00;;
21671;SDS011;10997;52.242;8.168;2022-08-11T08:58:22;4.47;;;1.90;;
21671;SDS011;10997;52.242;8.168;2022-08-11T09:03:24;3.28;;;2.00;;
21671;SDS011;10997;52.242;8.168;2022-08-11T09:08:26;3.90;;;2.30;;
21671;SDS011;10997;52.242;8.168;2022-08-11T09:13:31;4.95;;;2.08;;
21671;SDS011;10997;52.242;8.168;2022-08-11T09:18:32;3.85;;;1.85;;
21671;SDS011;10997;52.242;8.168;2022-08-11T09:23:34;5.97;;;1.77;;
21671;SDS011;10997;52.242;8.168;2022-08-11T09:28:53;2.25;;;1.88;;
21671;SDS011;10997;52.242;8.168;2022-08-11T09:33:54;6.10;;;1.83;;
21671;SDS011;10997;52.242;8.168;2022-08-11T09:38:55;3.60;;;2.03;;
21671;SDS011;10997;52.242;8.168;2022-08-11T09:44:23;4.20;;;1.80;;
21671;SDS011;10997;52.242;8.168;2022-08-11T09:49:44;4.88;;;1.80;;
21671;SDS011;10997;52.242;8.168;2022-08-11T09:54:46;4.85;;;2.00;;
21671;SDS011;10997;52.242;8.168;2022-08-11T09:59:48;3.30;;;1.88;;
21671;SDS011;10997;52.242;8.168;2022-08-11T10:04:54;8.48;;;2.00;;
21671;SDS011;10997;52.242;8.168;2022-08-11T10:10:16;4.27;;;1.67;;
21671;SDS011;10997;52.242;8.168;2022-08-11T10:15:21;2.80;;;1.70;;
21671;SDS011;10997;52.242;8.168;2022-08-11T10:20:38;4.47;;;2.08;;
21671;SDS011;10997;52.242;8.168;2022-08-11T10:25:40;3.75;;;1.50;;
21671;SDS011;10997;52.242;8.168;2022-08-11T10:31:01;4.72;;;1.50;;
21671;SDS011;10997;52.242;8.168;2022-08-11T10:36:22;3.88;;;1.83;;
21671;SDS011;10997;52.242;8.168;2022-08-11T10:41:24;3.78;;;1.75;;
21671;SDS011;10997;52.242;8.168;2022-08-11T10:46:45;11.88;;;2.50;;
21671;SDS011;10997;52.242;8.168;2022-08-11T10:52:05;4.35;;;1.98;;
21671;SDS011;10997;52.242;8.168;2022-08-11T10:57:24;3.65;;;2.00;;
21671;SDS011;10997;52.242;8.168;2022-08-11T11:02:44;3.47;;;1.58;;
21671;SDS011;10997;52.242;8.168;2022-08-11T11:13:25;3.38;;;2.10;;
21671;SDS011;10997;52.242;8.168;2022-08-11T11:18:45;3.10;;;1.70;;
21671;SDS011;10997;52.242;8.168;2022-08-11T11:23:50;4.72;;;1.95;;
21671;SDS011;10997;52.242;8.168;2022-08-11T11:40:15;3.50;;;1.75;;
21671;SDS011;10997;52.242;8.168;2022-08-11T11:45:21;4.00;;;1.90;;
21671;SDS011;10997;52.242;8.168;2022-08-11T11:50:31;6.13;;;1.70;;
21671;SDS011;10997;52.242;8.168;2022-08-11T11:55:34;5.93;;;1.88;;
21671;SDS011;10997;52.242;8.168;2022-08-11T12:00:36;5.38;;;1.70;;
21671;SDS011;10997;52.242;8.168;2022-08-11T12:05:57;9.95;;;1.77;;
21671;SDS011;10997;52.242;8.168;2022-08-11T12:11:00;4.35;;;1.45;;
21671;SDS011;10997;52.242;8.168;2022-08-11T12:16:21;3.28;;;1.67;;
21671;SDS011;10997;52.242;8.168;2022-08-11T12:21:23;3.88;;;1.50;;
21671;SDS011;10997;52.242;8.168;2022-08-11T12:26:26;3.03;;;1.52;;
21671;SDS011;10997;52.242;8.168;2022-08-11T12:31:57;4.90;;;1.77;;
21671;SDS011;10997;52.242;8.168;2022-08-11T12:37:00;3.22;;;1.60;;
21671;SDS011;10997;52.242;8.168;2022-08-11T12:42:04;3.00;;;1.65;;
21671;SDS011;10997;52.242;8.168;2022-08-11T12:47:24;4.10;;;1.85;;
21671;SDS011;10997;52.242;8.168;2022-08-11T12:52:47;6.18;;;1.92;;
21671;SDS011;10997;52.242;8.168;2022-08-11T12:57:53;3.58;;;1.75;;
21671;SDS011;10997;52.242;8.168;2022-08-11T13:03:12;3.42;;;1.70;;
21671;SDS011;10997;52.242;8.168;2022-08-11T13:08:34;4.50;;;1.90;;
21671;SDS011;10997;52.242;8.168;2022-08-11T13:13:37;4.28;;;1.77;;
21671;SDS011;10997;52.242;8.168;2022-08-11T13:18:39;4.22;;;1.77;;
21671;SDS011;10997;52.242;8.168;2022-08-11T13:23:41;2.92;;;1.52;;
21671;SDS011;10997;52.242;8.168;2022-08-11T13:28:42;3.55;;;1.90;;
21671;SDS011;10997;52.242;8.168;2022-08-11T13:33:45;7.90;;;1.80;;
21671;SDS011;10997;52.242;8.168;2022-08-11T13:38:50;3.13;;;1.75;;
21671;SDS011;10997;52.242;8.168;2022-08-11T13:43:54;8.27;;;1.83;;
21671;SDS011;10997;52.242;8.168;2022-08-11T13:48:56;3.30;;;1.80;;
21671;SDS011;10997;52.242;8.168;2022-08-11T13:53:57;3.97;;;1.52;;
21671;SDS011;10997;52.242;8.168;2022-08-11T13:59:05;6.13;;;1.50;;
21671;SDS011;10997;52.242;8.168;2022-08-11T14:04:19;2.90;;;1.70;;
21671;SDS011;10997;52.242;8.168;2022-08-11T14:09:26;4.45;;;1.50;;
21671;SDS011;10997;52.242;8.168;2022-08-11T14:14:30;3.70;;;1.40;;
21671;SDS011;10997;52.242;8.168;2022-08-11T14:19:34;6.88;;;1.65;;
21671;SDS011;10997;52.242;8.168;2022-08-11T14:24:40;4.03;;;1.60;;
21671;SDS011;10997;52.242;8.168;2022-08-11T14:29:43;5.78;;;1.60;;
21671;SDS011;10997;52.242;8.168;2022-08-11T14:34:45;5.80;;;1.92;;
21671;SDS011;10997;52.242;8.168;2022-08-11T14:39:47;2.88;;;1.70;;
21671;SDS011;10997;52.242;8.168;2022-08-11T14:44:53;4.50;;;1.67;;
21671;SDS011;10997;52.242;8.168;2022-08-11T14:50:17;3.23;;;1.60;;
21671;SDS011;10997;52.242;8.168;2022-08-11T14:55:24;2.58;;;1.67;;
21671;SDS011;10997;52.242;8.168;2022-08-11T15:00:45;3.90;;;1.65;;
21671;SDS011;10997;52.242;8.168;2022-08-11T15:05:55;3.42;;;1.65;;
21671;SDS011;10997;52.242;8.168;2022-08-11T15:10:59;3.78;;;1.60;;
21671;SDS011;10997;52.242;8.168;2022-08-11T15:15:59;3.53;;;1.83;;
21671;SDS011;10997;52.242;8.168;2022-08-11T15:21:18;4.85;;;1.75;;
21671;SDS011;10997;52.242;8.168;2022-08-11T15:26:42;2.92;;;1.77;;
21671;SDS011;10997;52.242;8.168;2022-08-11T15:32:02;4.18;;;1.77;;
21671;SDS011;10997;52.242;8.168;2022-08-11T15:37:21;4.15;;;1.80;;
21671;SDS011;10997;52.242;8.168;2022-08-11T15:42:25;4.47;;;1.63;;
21671;SDS011;10997;52.242;8.168;2022-08-11T15:47:56;2.08;;;1.40;;
21671;SDS011;10997;52.242;8.168;2022-08-11T15:53:10;3.30;;;1.70;;
21671;SDS011;10997;52.242;8.168;2022-08-11T15:58:17;2.42;;;1.30;;
21671;SDS011;10997;52.242;8.168;2022-08-11T16:03:53;4.20;;;1.80;;
21671;SDS011;10997;52.242;8.168;2022-08-11T16:14:18;3.38;;;1.50;;
21671;SDS011;10997;52.242;8.168;2022-08-11T16:19:40;3.85;;;1.45;;
21671;SDS011;10997;52.242;8.168;2022-08-11T16:24:43;2.85;;;1.60;;
21671;SDS011;10997;52.242;8.168;2022-08-11T16:29:45;5.10;;;1.65;;
21671;SDS011;10997;52.242;8.168;2022-08-11T16:35:03;1.98;;;1.50;;
21671;SDS011;10997;52.242;8.168;2022-08-11T16:40:25;2.92;;;1.60;;
21671;SDS011;10997;52.242;8.168;2022-08-11T16:45:28;3.50;;;1.50;;
21671;SDS011;10997;52.242;8.168;2022-08-11T16:50:48;4.05;;;1.45;;
21671;SDS011;10997;52.242;8.168;2022-08-11T16:55:49;5.68;;;1.50;;
21671;SDS011;10997;52.242;8.168;2022-08-11T17:00:52;4.57;;;1.60;;
21671;SDS011;10997;52.242;8.168;2022-08-11T17:05:53;7.57;;;1.63;;
21671;SDS011;10997;52.242;8.168;2022-08-11T17:11:12;3.35;;;1.70;;
21671;SDS011;10997;52.242;8.168;2022-08-11T17:16:34;4.43;;;1.42;;
21671;SDS011;10997;52.242;8.168;2022-08-11T17:21:39;2.45;;;1.60;;
21671;SDS011;10997;52.242;8.168;2022-08-11T17:27:02;3.83;;;1.58;;
21671;SDS011;10997;52.242;8.168;2022-08-11T17:32:07;3.83;;;1.45;;
21671;SDS011;10997;52.242;8.168;2022-08-11T17:37:30;2.67;;;1.50;;
21671;SDS011;10997;52.242;8.168;2022-08-11T17:42:33;4.35;;;1.73;;
21671;SDS011;10997;52.242;8.168;2022-08-11T17:47:53;3.92;;;1.50;;
21671;SDS011;10997;52.242;8.168;2022-08-11T17:53:14;5.93;;;1.63;;
21671;SDS011;10997;52.242;8.168;2022-08-11T17:58:34;1.80;;;1.70;;
21671;SDS011;10997;52.242;8.168;2022-08-11T18:03:57;4.55;;;1.88;;
21671;SDS011;10997;52.242;8.168;2022-08-11T18:08:58;3.78;;;1.73;;
21671;SDS011;10997;52.242;8.168;2022-08-11T18:14:20;3.17;;;1.85;;
21671;SDS011;10997;52.242;8.168;2022-08-11T18:19:41;3.70;;;1.58;;
21671;SDS011;10997;52.242;8.168;2022-08-11T18:25:20;5.93;;;1.80;;
21671;SDS011;10997;52.242;8.168;2022-08-11T18:30:45;5.20;;;1.70;;
21671;SDS011;10997;52.242;8.168;2022-08-11T18:36:05;3.88;;;1.60;;
21671;SDS011;10997;52.242;8.168;2022-08-11T18:41:31;4.70;;;1.85;;
21671;SDS011;10997;52.242;8.168;2022-08-11T18:46:54;7.17;;;1.67;;
21671;SDS011;10997;52.242;8.168;2022-08-11T18:52:15;5.22;;;1.70;;
21671;SDS011;10997;52.242;8.168;2022-08-11T18:57:35;3.92;;;1.80;;
21671;SDS011;10997;52.242;8.168;2022-08-11T19:02:57;5.75;;;2.30;;
21671;SDS011;10997;52.242;8.168;2022-08-11T19:08:20;3.33;;;2.00;;
21671;SDS011;10997;52.242;8.168;2022-08-11T19:13:41;7.22;;;2.33;;
21671;SDS011;10997;52.242;8.168;2022-08-11T19:19:03;7.68;;;2.13;;
21671;SDS011;10997;52.242;8.168;2022-08-11T19:24:23;7.75;;;3.17;;
21671;SDS011;10997;52.242;8.168;2022-08-11T19:29:44;10.63;;;3.00;;
21671;SDS011;10997;52.242;8.168;2022-08-11T19:35:04;7.20;;;2.80;;
21671;SDS011;10997;52.242;8.168;2022-08-11T19:40:24;12.05;;;2.95;;
21671;SDS011;10997;52.242;8.168;2022-08-11T19:45:44;9.32;;;2.60;;
21671;SDS011;10997;52.242;8.168;2022-08-11T19:51:04;7.15;;;2.63;;
21671;SDS011;10997;52.242;8.168;2022-08-11T19:56:25;7.85;;;2.72;;
21671;SDS011;10997;52.242;8.168;2022-08-11T20:01:45;7.75;;;2.75;;
21671;SDS011;10997;52.242;8.168;2022-08-11T20:07:05;4.20;;;2.22;;
21671;SDS011;10997;52.242;8.168;2022-08-11T20:12:26;10.23;;;2.90;;
21671;SDS011;10997;52.242;8.168;2022-08-11T20:17:47;9.73;;;2.70;;
21671;SDS011;10997;52.242;8.168;2022-08-11T20:23:07;8.23;;;2.60;;
21671;SDS011;10997;52.242;8.168;2022-08-11T20:28:27;7.80;;;2.47;;
21671;SDS011;10997;52.242;8.168;2022-08-11T20:33:48;6.63;;;2.88;;
21671;SDS011;10997;52.242;8.168;2022-08-11T20:39:08;4.82;;;2.60;;
21671;SDS011;10997;52.242;8.168;2022-08-11T20:44:28;2.92;;;2.60;;
21671;SDS011;10997;52.242;8.168;2022-08-11T20:49:49;7.35;;;3.10;;
21671;SDS011;10997;52.242;8.168;2022-08-11T20:55:09;5.38;;;3.00;;
21671;SDS011;10997;52.242;8.168;2022-08-11T21:00:30;5.80;;;2.75;;
21671;SDS011;10997;52.242;8.168;2022-08-11T21:05:51;4.63;;;2.75;;
21671;SDS011;10997;52.242;8.168;2022-08-11T21:11:11;4.47;;;3.20;;
21671;SDS011;10997;52.242;8.168;2022-08-11T21:16:33;4.45;;;3.22;;
21671;SDS011;10997;52.242;8.168;2022-08-11T21:21:54;5.80;;;2.80;;
21671;SDS011;10997;52.242;8.168;2022-08-11T21:27:15;3.88;;;2.83;;
21671;SDS011;10997;52.242;8.168;2022-08-11T21:32:37;4.05;;;2.97;;
21671;SDS011;10997;52.242;8.168;2022-08-11T21:38:00;7.22;;;3.40;;
21671;SDS011;10997;52.242;8.168;2022-08-11T21:43:20;4.15;;;2.95;;
21671;SDS011;10997;52.242;8.168;2022-08-11T21:48:40;5.25;;;3.33;;
21671;SDS011;10997;52.242;8.168;2022-08-11T21:54:00;4.90;;;3.05;;
21671;SDS011;10997;52.242;8.168;2022-08-11T21:59:21;4.70;;;2.80;;
21671;SDS011;10997;52.242;8.168;2022-08-11T22:04:49;4.97;;;3.00;;
21671;SDS011;10997;52.242;8.168;2022-08-11T22:10:09;3.75;;;3.15;;
21671;SDS011;10997;52.242;8.168;2022-08-11T22:15:28;5.30;;;3.03;;
21671;SDS011;10997;52.242;8.168;2022-08-11T22:20:47;4.10;;;3.10;;
21671;SDS011;10997;52.242;8.168;2022-08-11T22:26:08;4.22;;;3.17;;
21671;SDS011;10997;52.242;8.168;2022-08-11T22:31:29;4.47;;;3.15;;
21671;SDS011;10997;52.242;8.168;2022-08-11T22:36:50;3.67;;;2.97;;
21671;SDS011;10997;52.242;8.168;2022-08-11T22:42:10;4.50;;;3.10;;
21671;SDS011;10997;52.242;8.168;2022-08-11T22:47:29;6.15;;;2.75;;
21671;SDS011;10997;52.242;8.168;2022-08-11T22:52:49;4.43;;;2.83;;
21671;SDS011;10997;52.242;8.168;2022-08-11T22:58:10;5.43;;;2.80;;
21671;SDS011;10997;52.242;8.168;2022-08-11T23:03:31;5.03;;;3.10;;
21671;SDS011;10997;52.242;8.168;2022-08-11T23:08:51;4.82;;;2.92;;
21671;SDS011;10997;52.242;8.168;2022-08-11T23:14:12;6.75;;;3.35;;
21671;SDS011;10997;52.242;8.168;2022-08-11T23:19:32;3.72;;;3.10;;
21671;SDS011;10997;52.242;8.168;2022-08-11T23:24:51;4.13;;;3.00;;
21671;SDS011;10997;52.242;8.168;2022-08-11T23:30:11;5.13;;;2.70;;
21671;SDS011;10997;52.242;8.168;2022-08-11T23:35:31;3.38;;;2.80;;
21671;SDS011;10997;52.242;8.168;2022-08-11T23:40:51;3.30;;;2.60;;
21671;SDS011;10997;52.242;8.168;2022-08-11T23:46:10;4.97;;;3.00;;
21671;SDS011;10997;52.242;8.168;2022-08-11T23:51:30;5.07;;;3.22;;
21671;SDS011;10997;52.242;8.168;2022-08-11T23:56:49;5.35;;;3.20;;
